Main page
METAR-TAF:

Airports :

Podgorica, Montenegro

Podgorica Airport

latitude: 42-26N, longitude: 019-17E, elevation: 53 m

Current weather observation

The report was made 23 minutes ago, at 17:30 UTC
Wind 5 kt from the Southwest
Temperature 25°C
Humidity 39%
Pressure 1014 hPa
Visibility 10 km or more
Few clouds at a height of 3000 ft

METAR: LYPG 311730Z 23005KT 9999 FEW030 25/10 Q1014 NOSIG

Time: 19:53 (17:53 UTC)

Forecast

The report was made 53 minutes ago, at 17:00 UTC
Forecast valid from 31 at 18 UTC to 01 at 18 UTC
Wind 5 kt from the North
Visibility 10 km or more
Few clouds at a height of 3300 ft
Scattered clouds at a height of 9000 ft
Becoming
from 01 at 10 UTC to 01 at 12 UTC
Wind 10 kt from the South/Southeast

TAF: LYPG 311700Z 3118/0118 36005KT 9999 FEW033 SCT090 TX24/0113Z TN14/0103Z BECMG 0110/0112 16010KT

METAR-TAF

Weather observations and forecasts of more than 4000 airports (METAR and TAF reports).

The available stations are represented by yellow and red dots on the map.

Hover mouse over dot to see the name of the station.

Then click to see weather observations and forecasts.

To change the map : click on the green buttons with a black cross to zoom in, on the green button with a dash to zoom out, or on the green arrows for adjacent maps.


METAR-TAF: